createdAt,value
2023-05-22T00:01:15.097Z,100727.50
2023-05-22T00:03:42.144Z,100731.94
2023-05-22T00:06:10.317Z,100709.19
2023-05-22T00:08:37.424Z,100718.88
2023-05-22T00:11:05.196Z,100694.34
2023-05-22T00:13:32.255Z,100717.97
2023-05-22T00:15:59.336Z,100710.84
2023-05-22T00:18:27.254Z,100707.31
2023-05-22T00:20:54.509Z,100721.28
2023-05-22T00:23:22.117Z,100697.66
2023-05-22T00:25:50.808Z,100702.97
2023-05-22T00:28:17.908Z,100712.59
2023-05-22T00:30:46.096Z,100721.22
2023-05-22T00:33:13.452Z,100725.56
2023-05-22T00:35:40.785Z,100731.66
2023-05-22T00:38:08.501Z,100724.66
2023-05-22T00:40:35.577Z,100704.50
2023-05-22T00:43:08.655Z,100712.47
2023-05-22T00:45:36.057Z,100697.53
2023-05-22T00:48:03.281Z,100704.47
2023-05-22T00:50:30.372Z,100724.63
2023-05-22T00:52:57.450Z,100690.38
2023-05-22T00:55:24.575Z,100722.72
2023-05-22T00:57:52.459Z,100689.22
2023-05-22T01:00:20.306Z,100712.84
2023-05-22T01:02:47.665Z,100703.09
2023-05-22T01:05:18.411Z,100711.75
2023-05-22T01:07:46.632Z,100645.06
2023-05-22T01:10:13.764Z,100712.66
2023-05-22T01:12:58.875Z,100691.78
2023-05-22T01:15:31.914Z,100701.38
2023-05-22T01:18:39.965Z,100711.09
2023-05-22T01:21:13.565Z,100711.63
2023-05-22T01:23:58.859Z,100710.47
2023-05-22T01:26:44.124Z,100705.91
2023-05-22T01:29:42.162Z,100708.59
2023-05-22T01:32:14.744Z,100704.91
2023-05-22T01:34:45.252Z,100729.38
2023-05-22T01:37:14.339Z,100715.44
2023-05-22T01:39:43.989Z,100691.53
2023-05-22T01:42:11.246Z,100711.69
2023-05-22T01:44:38.302Z,100717.59
2023-05-22T01:47:05.992Z,100716.69
2023-05-22T01:49:34.873Z,100720.25
2023-05-22T01:52:15.601Z,100729.16
2023-05-22T01:54:46.502Z,100732.53
2023-05-22T01:57:23.157Z,100722.16
2023-05-22T01:59:56.448Z,100704.59
2023-05-22T02:02:24.875Z,100722.16
2023-05-22T02:05:03.973Z,100726.72
2023-05-22T02:07:34.170Z,100735.31
2023-05-22T02:10:02.884Z,100729.00
2023-05-22T02:12:31.959Z,100730.50
2023-05-22T02:14:59.309Z,100720.50
2023-05-22T02:17:28.156Z,100742.53
2023-05-22T02:19:55.369Z,100749.56
2023-05-22T02:22:22.438Z,100738.31
2023-05-22T02:24:50.206Z,100746.31
2023-05-22T02:27:17.454Z,100726.19
2023-05-22T02:29:44.510Z,100745.47
2023-05-22T02:32:12.962Z,100759.41
2023-05-22T02:34:40.291Z,100758.56
2023-05-22T02:37:07.461Z,100750.81
2023-05-22T02:39:34.556Z,100759.50
2023-05-22T02:42:01.581Z,100750.63
2023-05-22T02:44:28.655Z,100758.38
2023-05-22T02:46:55.985Z,100752.94
2023-05-22T02:49:23.225Z,100756.69
2023-05-22T02:51:50.404Z,100763.78
2023-05-22T02:54:18.127Z,100765.66
2023-05-22T02:56:45.243Z,100741.09
2023-05-22T02:59:12.358Z,100767.50
2023-05-22T03:01:39.946Z,100763.97
2023-05-22T03:04:07.237Z,100768.28
2023-05-22T03:06:35.463Z,100765.63
2023-05-22T03:09:04.224Z,100770.00
2023-05-22T03:11:34.549Z,100755.09
2023-05-22T03:14:01.630Z,100760.28
2023-05-22T03:16:28.882Z,100765.66
2023-05-22T03:19:10.173Z,100759.75
2023-05-22T03:21:38.025Z,100765.81
2023-05-22T03:24:06.244Z,100754.41
2023-05-22T03:26:34.099Z,100762.34
2023-05-22T03:29:04.215Z,100764.13
2023-05-22T03:31:33.010Z,100760.69
2023-05-22T03:34:09.137Z,100751.03
2023-05-22T03:36:38.059Z,100756.41
2023-05-22T03:39:06.484Z,100761.75
2023-05-22T03:41:38.811Z,100774.84
2023-05-22T03:44:06.642Z,100770.59
2023-05-22T03:46:34.318Z,100772.47
2023-05-22T03:49:01.645Z,100766.28
2023-05-22T03:51:28.816Z,100757.72
2023-05-22T03:53:55.960Z,100774.44
2023-05-22T03:56:23.228Z,100773.75
2023-05-22T03:58:50.636Z,100767.69
2023-05-22T04:01:18.154Z,100759.97
2023-05-22T04:03:45.456Z,100754.75
2023-05-22T04:06:13.934Z,100773.28
2023-05-22T04:08:41.259Z,100774.31
2023-05-22T04:11:08.453Z,100770.09
2023-05-22T04:13:35.585Z,100768.53
2023-05-22T04:16:04.358Z,100751.16
2023-05-22T04:18:31.550Z,100716.94
2023-05-22T04:20:58.680Z,100782.84
2023-05-22T04:23:25.832Z,100780.38
2023-05-22T04:25:52.978Z,100754.25
2023-05-22T04:28:23.620Z,100774.50
2023-05-22T04:30:50.841Z,100771.97
2023-05-22T04:33:18.617Z,100770.34
2023-05-22T04:35:45.770Z,100753.81
2023-05-22T04:38:13.205Z,100754.78
2023-05-22T04:40:40.439Z,100748.84
2023-05-22T04:43:08.790Z,100755.06
2023-05-22T04:45:35.845Z,100740.22
2023-05-22T04:48:03.335Z,100749.09
2023-05-22T04:50:36.297Z,100748.28
2023-05-22T04:53:04.544Z,100754.41
2023-05-22T04:55:35.238Z,100735.19
2023-05-22T04:58:02.999Z,100755.41
2023-05-22T05:00:30.211Z,100755.44
2023-05-22T05:02:57.843Z,100767.69
2023-05-22T05:05:25.481Z,100766.00
2023-05-22T05:07:54.797Z,100771.31
2023-05-22T05:10:22.161Z,100773.03
2023-05-22T05:12:49.256Z,100770.44
2023-05-22T05:15:19.162Z,100767.81
2023-05-22T05:17:46.737Z,100783.53
2023-05-22T05:20:14.846Z,100766.00
2023-05-22T05:22:44.093Z,100782.72
2023-05-22T05:25:13.690Z,100767.81
2023-05-22T05:27:40.962Z,100774.72
2023-05-22T05:30:10.887Z,100774.72
2023-05-22T05:33:01.325Z,100771.94
2023-05-22T05:35:43.658Z,100774.47
2023-05-22T05:38:12.936Z,100781.41
2023-05-22T05:40:43.895Z,100778.78
2023-05-22T05:43:15.307Z,100758.50
2023-05-22T05:45:44.021Z,100781.31
2023-05-22T05:48:12.242Z,100780.44
2023-05-22T05:50:43.239Z,100777.78
2023-05-22T05:53:10.557Z,100769.88
2023-05-22T05:55:38.896Z,100773.38
2023-05-22T05:58:05.990Z,100756.53
2023-05-22T06:00:56.468Z,100766.06
2023-05-22T06:03:25.733Z,100787.94
2023-05-22T06:06:03.523Z,100783.50
2023-05-22T06:08:49.297Z,100802.81
2023-05-22T06:11:16.780Z,100806.38
2023-05-22T06:13:53.665Z,100811.63
2023-05-22T06:16:20.895Z,100813.38
2023-05-22T06:18:48.567Z,100815.97
2023-05-22T06:21:16.176Z,100798.53
2023-05-22T06:23:43.228Z,100805.50
2023-05-22T06:26:11.554Z,100795.06
2023-05-22T06:28:41.242Z,100774.81
2023-05-22T06:31:09.553Z,100788.75
2023-05-22T06:33:37.969Z,100793.09
2023-05-22T06:36:05.560Z,100815.88
2023-05-22T06:38:33.130Z,100821.19
2023-05-22T06:41:00.633Z,100820.28
2023-05-22T06:43:27.888Z,100823.00
2023-05-22T06:46:00.508Z,100810.00
2023-05-22T06:48:47.708Z,100812.78
2023-05-22T06:51:21.477Z,100811.81
2023-05-22T06:53:52.047Z,100789.91
2023-05-22T06:56:26.644Z,100767.97
2023-05-22T06:58:58.278Z,100776.78
2023-05-22T07:01:41.888Z,100770.66
2023-05-22T07:04:13.653Z,100781.25
2023-05-22T07:06:50.741Z,100793.50
2023-05-22T07:09:20.310Z,100797.16
2023-05-22T07:11:49.191Z,100769.38
2023-05-22T07:14:18.245Z,100765.03
2023-05-22T07:16:46.399Z,100749.38
2023-05-22T07:19:17.625Z,100753.81
2023-05-22T07:21:44.833Z,100750.38
2023-05-22T07:24:15.812Z,100719.78
2023-05-22T07:26:46.700Z,100751.41
2023-05-22T07:29:15.725Z,100747.06
2023-05-22T07:31:44.729Z,100741.06
2023-05-22T07:34:11.919Z,100762.13
2023-05-22T07:36:38.982Z,100762.22
2023-05-22T07:39:09.639Z,100756.91
2023-05-22T07:41:40.340Z,100782.34
2023-05-22T07:44:09.978Z,100791.25
2023-05-22T07:46:38.775Z,100797.44
2023-05-22T07:49:11.144Z,100773.91
2023-05-22T07:51:41.263Z,100786.25
2023-05-22T07:54:10.323Z,100755.66
2023-05-22T07:56:44.214Z,100770.53
2023-05-22T07:59:12.432Z,100785.50
2023-05-22T08:01:41.898Z,100744.41
2023-05-22T08:04:09.269Z,100742.72
2023-05-22T08:06:36.407Z,100775.22
2023-05-22T08:09:06.982Z,100768.31
2023-05-22T08:11:34.505Z,100770.13
2023-05-22T08:14:01.800Z,100759.66
2023-05-22T08:16:30.148Z,100760.47
2023-05-22T08:18:57.227Z,100780.66
2023-05-22T08:21:24.270Z,100780.69
2023-05-22T08:23:51.339Z,100791.25
2023-05-22T08:26:18.496Z,100791.31
2023-05-22T08:28:45.565Z,100776.34
2023-05-22T08:31:13.504Z,100778.16
2023-05-22T08:33:41.152Z,100781.69
2023-05-22T08:36:08.419Z,100763.34
2023-05-22T08:38:35.577Z,100780.00
2023-05-22T08:41:02.894Z,100764.28
2023-05-22T08:43:30.035Z,100763.44
2023-05-22T08:46:03.847Z,100781.81
2023-05-22T08:48:32.464Z,100778.34
2023-05-22T08:51:04.377Z,100742.44
2023-05-22T08:53:37.824Z,100780.13
2023-05-22T08:56:06.990Z,100783.63
2023-05-22T08:58:36.713Z,100787.13
2023-05-22T09:01:06.156Z,100764.41
2023-05-22T09:03:34.444Z,100764.41
2023-05-22T09:06:04.361Z,100753.03
2023-05-22T09:08:31.417Z,100763.56
2023-05-22T09:10:58.554Z,100763.59
2023-05-22T09:13:28.579Z,100753.16
2023-05-22T09:16:14.687Z,100753.16
2023-05-22T09:18:42.776Z,100756.66
2023-05-22T09:21:25.741Z,100755.78
2023-05-22T09:24:01.773Z,100754.88
2023-05-22T09:26:30.034Z,100747.88
2023-05-22T09:28:59.994Z,100746.13
2023-05-22T09:31:29.422Z,100745.25
2023-05-22T09:33:56.696Z,100745.25
2023-05-22T09:36:33.448Z,100740.88
2023-05-22T09:39:01.933Z,100762.75
2023-05-22T09:41:30.651Z,100755.72
2023-05-22T09:43:59.784Z,100750.47
2023-05-22T09:46:28.320Z,100742.59
2023-05-22T09:48:55.460Z,100743.47
2023-05-22T09:51:26.710Z,100753.13
2023-05-22T09:54:03.958Z,100767.13
2023-05-22T09:56:39.992Z,100733.84
2023-05-22T09:59:09.718Z,100754.00
2023-05-22T10:01:39.990Z,100750.47
2023-05-22T10:04:08.744Z,100753.09
2023-05-22T10:06:37.378Z,100742.63
2023-05-22T10:09:09.682Z,100728.59
2023-05-22T10:11:37.483Z,100751.38
2023-05-22T10:14:05.236Z,100740.00
2023-05-22T10:16:38.434Z,100733.84
2023-05-22T10:19:07.853Z,100736.47
2023-05-22T10:21:37.140Z,100738.25
2023-05-22T10:24:06.307Z,100720.72
2023-05-22T10:26:33.967Z,100727.72
2023-05-22T10:29:21.018Z,100737.34
2023-05-22T10:32:05.193Z,100725.09
2023-05-22T10:35:28.178Z,100735.59
2023-05-22T10:38:20.104Z,100722.47
2023-05-22T10:40:48.491Z,100732.97
2023-05-22T10:43:15.879Z,100737.31
2023-05-22T10:45:46.630Z,100732.94
2023-05-22T10:48:13.970Z,100732.06
2023-05-22T10:50:50.208Z,100735.59
2023-05-22T10:53:28.332Z,100724.16
2023-05-22T10:55:57.052Z,100722.41
2023-05-22T10:58:28.602Z,100718.84
2023-05-22T11:01:15.009Z,100723.25
2023-05-22T11:03:55.063Z,100710.13
2023-05-22T11:06:31.491Z,100721.47
2023-05-22T11:08:59.895Z,100714.44
2023-05-22T11:11:27.908Z,100717.91
2023-05-22T11:14:03.547Z,100707.38
2023-05-22T11:16:34.163Z,100717.84
2023-05-22T11:19:22.549Z,100707.28
2023-05-22T11:21:51.204Z,100695.88
2023-05-22T11:24:18.750Z,100701.09
2023-05-22T11:27:02.685Z,100702.78
2023-05-22T11:29:30.821Z,100688.78
2023-05-22T11:31:59.176Z,100683.50
2023-05-22T11:34:26.574Z,100691.34
2023-05-22T11:36:59.111Z,100694.78
2023-05-22T11:39:26.656Z,100691.22
2023-05-22T11:41:53.916Z,100683.28
2023-05-22T11:44:21.029Z,100678.88
2023-05-22T11:46:48.273Z,100691.09
2023-05-22T11:49:15.610Z,100683.97
2023-05-22T11:51:42.975Z,100679.47
2023-05-22T11:54:10.734Z,100683.72
2023-05-22T11:56:37.776Z,100659.97
2023-05-22T11:59:04.845Z,100671.31
2023-05-22T12:01:32.562Z,100679.16
2023-05-22T12:03:59.847Z,100653.66
2023-05-22T12:06:26.973Z,100647.41
2023-05-22T12:08:54.541Z,100663.81
2023-05-22T12:11:21.765Z,100654.88
2023-05-22T12:13:52.263Z,100660.88
2023-05-22T12:16:24.319Z,100659.00
2023-05-22T12:18:54.763Z,100646.69
2023-05-22T12:21:22.173Z,100643.03
2023-05-22T12:23:51.214Z,100642.06
2023-05-22T12:26:18.482Z,100626.22
2023-05-22T12:28:45.673Z,100619.91
2023-05-22T12:31:21.033Z,100611.84
2023-05-22T12:33:48.459Z,100627.53
2023-05-22T12:36:15.659Z,100619.59
2023-05-22T12:38:42.772Z,100610.81
2023-05-22T12:41:09.782Z,100607.09
2023-05-22T12:43:36.998Z,100606.16
2023-05-22T12:46:04.316Z,100607.00
2023-05-22T12:48:31.435Z,100598.25
2023-05-22T12:50:58.603Z,100608.66
2023-05-22T12:53:25.835Z,100601.50
2023-05-22T12:55:52.886Z,100589.09
2023-05-22T12:58:19.978Z,100592.53
2023-05-22T13:00:47.004Z,100590.72
2023-05-22T13:03:14.068Z,100595.97
2023-05-22T13:05:42.051Z,100596.91
2023-05-22T13:08:09.343Z,100594.31
2023-05-22T13:10:36.468Z,100583.66
2023-05-22T13:13:03.613Z,100560.91
2023-05-22T13:15:31.558Z,100592.25
2023-05-22T13:17:58.682Z,100576.50
2023-05-22T13:20:25.921Z,100564.31
2023-05-22T13:22:52.990Z,100576.41
2023-05-22T13:25:20.241Z,100579.72
2023-05-22T13:27:48.304Z,100572.63
2023-05-22T13:30:16.243Z,100570.78
2023-05-22T13:32:43.331Z,100554.03
2023-05-22T13:35:10.656Z,100559.19
2023-05-22T13:37:39.547Z,100555.75
2023-05-22T13:40:08.957Z,100549.66
2023-05-22T13:42:36.723Z,100530.47
2023-05-22T13:45:04.983Z,100544.34
2023-05-22T13:47:33.448Z,100547.88
2023-05-22T13:50:00.750Z,100547.00
2023-05-22T13:52:28.698Z,100550.53
2023-05-22T13:54:56.240Z,100567.25
2023-05-22T13:57:23.339Z,100559.28
2023-05-22T13:59:50.427Z,100562.81
2023-05-22T14:02:20.622Z,100565.38
2023-05-22T14:04:48.829Z,100560.13
2023-05-22T14:07:16.340Z,100558.31
2023-05-22T14:09:43.451Z,100559.19
2023-05-22T14:12:10.653Z,100561.03
2023-05-22T14:14:37.768Z,100576.56
2023-05-22T14:17:07.863Z,100535.63
2023-05-22T14:19:35.801Z,100583.94
2023-05-22T14:22:03.120Z,100580.72
2023-05-22T14:24:30.247Z,100555.00
2023-05-22T14:26:58.325Z,100575.22
2023-05-22T14:29:26.038Z,100572.75
2023-05-22T14:31:55.600Z,100561.81
2023-05-22T14:34:22.782Z,100565.84
2023-05-22T14:36:49.855Z,100541.53
2023-05-22T14:39:16.922Z,100531.31
2023-05-22T14:41:43.943Z,100531.63
2023-05-22T14:44:10.989Z,100523.97
2023-05-22T14:46:38.072Z,100539.91
2023-05-22T14:49:05.458Z,100513.00
2023-05-22T14:51:32.549Z,100547.16
2023-05-22T14:54:00.554Z,100547.25
2023-05-22T14:56:28.412Z,100543.78
2023-05-22T14:58:55.668Z,100519.44
2023-05-22T15:01:22.794Z,100541.28
2023-05-22T15:03:49.975Z,100536.97
2023-05-22T15:06:17.069Z,100539.66
2023-05-22T15:08:44.114Z,100537.09
2023-05-22T15:11:11.174Z,100544.19
2023-05-22T15:13:38.278Z,100524.16
2023-05-22T15:16:05.610Z,100539.03
2023-05-22T15:18:32.749Z,100554.81
2023-05-22T15:21:00.174Z,100536.38
2023-05-22T15:23:27.397Z,100550.41
2023-05-22T15:25:54.632Z,100547.78
2023-05-22T15:28:22.243Z,100542.56
2023-05-22T15:30:49.432Z,100537.28
2023-05-22T15:33:17.101Z,100531.13
2023-05-22T15:35:46.741Z,100517.13
2023-05-22T15:38:15.661Z,100531.97
2023-05-22T15:40:44.496Z,100532.88
2023-05-22T15:43:11.904Z,100529.38
2023-05-22T15:45:39.337Z,100519.75
2023-05-22T15:48:07.712Z,100525.88
2023-05-22T15:50:34.923Z,100514.50
2023-05-22T15:53:01.973Z,100538.19
2023-05-22T15:55:28.998Z,100532.97
2023-05-22T15:57:57.962Z,100539.97
2023-05-22T16:00:25.202Z,100490.19
2023-05-22T16:02:52.382Z,100538.25
2023-05-22T16:05:19.874Z,100547.03
2023-05-22T16:07:47.039Z,100551.44
2023-05-22T16:10:14.153Z,100549.69
2023-05-22T16:12:41.737Z,100559.31
2023-05-22T16:15:09.454Z,100562.84
2023-05-22T16:17:38.698Z,100561.09
2023-05-22T16:20:07.028Z,100543.66
2023-05-22T16:22:47.458Z,100557.69
2023-05-22T16:25:16.838Z,100566.47
2023-05-22T16:27:44.044Z,100496.63
2023-05-22T16:30:12.396Z,100581.41
2023-05-22T16:32:39.576Z,100576.16
2023-05-22T16:35:06.889Z,100577.94
2023-05-22T16:37:34.168Z,100582.31
2023-05-22T16:40:01.353Z,100577.09
2023-05-22T16:42:29.512Z,100577.97
2023-05-22T16:44:56.596Z,100575.34
2023-05-22T16:47:23.668Z,100578.88
2023-05-22T16:49:50.715Z,100584.13
2023-05-22T16:52:22.315Z,100573.63
2023-05-22T16:54:50.311Z,100582.34
2023-05-22T16:57:17.492Z,100587.63
2023-05-22T16:59:45.482Z,100585.88
2023-05-22T17:02:13.749Z,100585.88
2023-05-22T17:04:41.189Z,100571.00
2023-05-22T17:07:08.329Z,100560.53
2023-05-22T17:09:35.416Z,100583.25
2023-05-22T17:12:02.464Z,100558.78
2023-05-22T17:14:29.580Z,100573.63
2023-05-22T17:16:56.625Z,100581.53
2023-05-22T17:19:23.828Z,100566.66
2023-05-22T17:21:51.068Z,100582.41
2023-05-22T17:24:18.440Z,100576.28
2023-05-22T17:26:46.165Z,100575.44
2023-05-22T17:29:13.264Z,100580.69
2023-05-22T17:31:40.319Z,100571.91
2023-05-22T17:34:07.412Z,100571.91
2023-05-22T17:36:34.592Z,100533.41
2023-05-22T17:39:02.007Z,100579.78
2023-05-22T17:41:29.388Z,100582.41
2023-05-22T17:43:57.295Z,100569.28
2023-05-22T17:46:24.434Z,100575.41
2023-05-22T17:48:51.564Z,100573.66
2023-05-22T17:51:18.636Z,100569.28
2023-05-22T17:53:45.822Z,100571.94
2023-05-22T17:56:12.900Z,100578.91
2023-05-22T17:58:40.101Z,100555.31
2023-05-22T18:01:07.282Z,100569.28
2023-05-22T18:03:34.643Z,100573.69
2023-05-22T18:06:01.784Z,100571.94
2023-05-22T18:08:28.953Z,100569.31
2023-05-22T18:10:57.375Z,100564.94
2023-05-22T18:13:24.431Z,100560.56
2023-05-22T18:15:51.855Z,100563.22
2023-05-22T18:18:19.170Z,100571.09
2023-05-22T18:20:46.406Z,100570.22
2023-05-22T18:23:13.669Z,100553.59
2023-05-22T18:25:41.049Z,100561.47
2023-05-22T18:28:08.481Z,100569.34
2023-05-22T18:30:35.558Z,100568.47
2023-05-22T18:33:03.389Z,100565.84
2023-05-22T18:35:30.951Z,100569.34
2023-05-22T18:38:00.961Z,100530.84
2023-05-22T18:40:28.147Z,100567.56
2023-05-22T18:42:55.280Z,100575.44
2023-05-22T18:45:22.382Z,100544.81
2023-05-22T18:47:49.563Z,100552.72
2023-05-22T18:50:16.757Z,100551.81
2023-05-22T18:52:43.784Z,100552.69
2023-05-22T18:55:11.386Z,100563.16
2023-05-22T18:57:38.469Z,100573.63
2023-05-22T19:00:07.202Z,100546.50
2023-05-22T19:02:34.553Z,100555.22
2023-05-22T19:05:01.987Z,100563.06
2023-05-22T19:07:31.370Z,100563.06
2023-05-22T19:09:58.510Z,100568.31
2023-05-22T19:12:28.408Z,100574.41
2023-05-22T19:14:55.473Z,100574.41
2023-05-22T19:17:22.496Z,100560.41
2023-05-22T19:19:49.600Z,100558.66
2023-05-22T19:22:18.206Z,100578.78
2023-05-22T19:24:45.255Z,100573.47
2023-05-22T19:27:12.294Z,100571.72
2023-05-22T19:29:39.382Z,100569.94
2023-05-22T19:32:06.793Z,100562.06
2023-05-22T19:34:33.954Z,100547.19
2023-05-22T19:37:01.101Z,100574.28
2023-05-22T19:39:28.666Z,100564.63
2023-05-22T19:41:55.784Z,100549.75
2023-05-22T19:44:22.859Z,100562.06
2023-05-22T19:46:50.072Z,100558.56
2023-05-22T19:49:17.252Z,100548.94
2023-05-22T19:51:44.411Z,100520.03
2023-05-22T19:54:11.532Z,100549.75
2023-05-22T19:56:38.686Z,100542.78
2023-05-22T19:59:05.900Z,100546.31
2023-05-22T20:01:32.942Z,100551.53
2023-05-22T20:04:01.186Z,100492.03
2023-05-22T20:06:31.644Z,100513.91
2023-05-22T20:08:58.709Z,100547.19
2023-05-22T20:11:26.521Z,100549.78
2023-05-22T20:13:54.607Z,100548.94
2023-05-22T20:16:21.744Z,100548.94
2023-05-22T20:18:49.021Z,100531.41
2023-05-22T20:21:16.085Z,100550.63
2023-05-22T20:23:43.213Z,100543.66
2023-05-22T20:26:10.405Z,100526.16
2023-05-22T20:28:37.522Z,100524.38
2023-05-22T20:31:06.080Z,100530.53
2023-05-22T20:33:33.175Z,100530.53
2023-05-22T20:36:01.601Z,100530.53
2023-05-22T20:38:29.436Z,100522.63
2023-05-22T20:40:58.618Z,100506.03
2023-05-22T20:43:26.333Z,100528.72
2023-05-22T20:45:54.367Z,100532.19
2023-05-22T20:48:21.730Z,100512.03
2023-05-22T20:50:50.719Z,100540.88
2023-05-22T20:53:18.353Z,100427.16
2023-05-22T20:55:45.515Z,100521.69
2023-05-22T20:58:15.293Z,100535.69
2023-05-22T21:00:42.491Z,100515.63
2023-05-22T21:03:09.828Z,100509.44
2023-05-22T21:05:37.000Z,100520.84
2023-05-22T21:08:04.178Z,100523.47
2023-05-22T21:10:31.238Z,100519.06
2023-05-22T21:12:58.548Z,100522.56
2023-05-22T21:15:25.617Z,100526.94
2023-05-22T21:17:52.808Z,100520.75
2023-05-22T21:20:19.897Z,100518.22
2023-05-22T21:22:48.245Z,100523.44
2023-05-22T21:25:15.412Z,100524.31
2023-05-22T21:27:42.506Z,100444.66
2023-05-22T21:30:12.738Z,100512.03
2023-05-22T21:32:39.886Z,100520.81
2023-05-22T21:35:08.065Z,100526.06
2023-05-22T21:37:35.405Z,100512.09
2023-05-22T21:40:02.456Z,100526.06
2023-05-22T21:42:44.998Z,100516.47
2023-05-22T21:45:14.088Z,100515.63
2023-05-22T21:47:41.783Z,100505.09
2023-05-22T21:50:09.346Z,100499.84
2023-05-22T21:52:36.430Z,100503.38
2023-05-22T21:55:04.145Z,100501.63
2023-05-22T21:57:31.943Z,100503.38
2023-05-22T21:59:59.041Z,100495.47
2023-05-22T22:02:26.216Z,100500.75
2023-05-22T22:04:53.317Z,100492.84
2023-05-22T22:07:20.493Z,100499.00
2023-05-22T22:09:47.548Z,100495.47
2023-05-22T22:12:14.567Z,100491.09
2023-05-22T22:14:41.593Z,100489.28
2023-05-22T22:17:09.152Z,100495.38
2023-05-22T22:19:36.375Z,100492.75
2023-05-22T22:22:03.573Z,100477.00
2023-05-22T22:24:30.659Z,100482.28
2023-05-22T22:26:57.721Z,100492.75
2023-05-22T22:29:24.773Z,100487.56
2023-05-22T22:31:52.998Z,100480.59
2023-05-22T22:34:20.256Z,100475.34
2023-05-22T22:36:47.611Z,100476.19
2023-05-22T22:39:14.771Z,100484.91
2023-05-22T22:41:43.658Z,100464.81
2023-05-22T22:44:11.006Z,100471.81
2023-05-22T22:46:38.317Z,100480.53
2023-05-22T22:49:05.581Z,100430.63
2023-05-22T22:51:32.728Z,100483.13
2023-05-22T22:53:59.913Z,100484.00
2023-05-22T22:56:29.999Z,100472.63
2023-05-22T22:58:57.412Z,100476.09
2023-05-22T23:01:24.838Z,100467.34
2023-05-22T23:03:52.195Z,100474.34
2023-05-22T23:06:19.574Z,100463.84
2023-05-22T23:08:46.600Z,100464.72
2023-05-22T23:11:13.714Z,100464.69
2023-05-22T23:13:43.225Z,100466.41
2023-05-22T23:16:10.526Z,100448.94
2023-05-22T23:18:37.956Z,100455.91
2023-05-22T23:21:05.166Z,100456.78
2023-05-22T23:23:32.581Z,100449.69
2023-05-22T23:25:59.686Z,100447.06
2023-05-22T23:28:26.819Z,100411.13
2023-05-22T23:30:53.969Z,100441.81
2023-05-22T23:33:21.417Z,100450.59
2023-05-22T23:35:48.537Z,100444.44
2023-05-22T23:38:15.645Z,100431.38
2023-05-22T23:40:42.720Z,100386.72
2023-05-22T23:43:09.757Z,100446.22
2023-05-22T23:45:36.848Z,100440.06
2023-05-22T23:48:04.354Z,100443.56
2023-05-22T23:50:31.512Z,100432.22
2023-05-22T23:52:58.604Z,100436.59
2023-05-22T23:55:25.747Z,100435.72
2023-05-22T23:57:52.847Z,100435.72
